sensor_id;sensor_type;location;lat;lon;timestamp;P1;durP1;ratioP1;P2;durP2;ratioP2
71655;SDS011;59497;48.798;8.816;2022-10-16T00:01:53;1.15;;;0.85;;
71655;SDS011;59497;48.798;8.816;2022-10-16T00:04:18;1.00;;;0.70;;
71655;SDS011;59497;48.798;8.816;2022-10-16T00:06:43;1.10;;;0.90;;
71655;SDS011;59497;48.798;8.816;2022-10-16T00:09:08;2.07;;;0.80;;
71655;SDS011;59497;48.798;8.816;2022-10-16T00:11:35;1.45;;;0.93;;
71655;SDS011;59497;48.798;8.816;2022-10-16T00:14:02;1.33;;;0.90;;
71655;SDS011;59497;48.798;8.816;2022-10-16T00:16:28;2.58;;;0.85;;
71655;SDS011;59497;48.798;8.816;2022-10-16T00:18:53;1.40;;;0.90;;
71655;SDS011;59497;48.798;8.816;2022-10-16T00:21:19;2.57;;;1.00;;
71655;SDS011;59497;48.798;8.816;2022-10-16T00:23:45;1.25;;;0.68;;
71655;SDS011;59497;48.798;8.816;2022-10-16T00:26:14;1.03;;;0.70;;
71655;SDS011;59497;48.798;8.816;2022-10-16T00:28:40;2.13;;;0.60;;
71655;SDS011;59497;48.798;8.816;2022-10-16T00:31:09;1.70;;;1.00;;
71655;SDS011;59497;48.798;8.816;2022-10-16T00:33:35;0.50;;;0.50;;
71655;SDS011;59497;48.798;8.816;2022-10-16T00:36:01;1.17;;;0.67;;
71655;SDS011;59497;48.798;8.816;2022-10-16T00:38:26;1.10;;;0.80;;
71655;SDS011;59497;48.798;8.816;2022-10-16T00:40:52;5.40;;;0.60;;
71655;SDS011;59497;48.798;8.816;2022-10-16T00:46:25;2.22;;;0.77;;
71655;SDS011;59497;48.798;8.816;2022-10-16T00:48:52;1.48;;;0.65;;
71655;SDS011;59497;48.798;8.816;2022-10-16T00:51:21;2.47;;;1.33;;
71655;SDS011;59497;48.798;8.816;2022-10-16T00:53:48;3.53;;;0.90;;
71655;SDS011;59497;48.798;8.816;2022-10-16T00:56:13;3.55;;;1.02;;
71655;SDS011;59497;48.798;8.816;2022-10-16T00:58:38;1.10;;;0.40;;
71655;SDS011;59497;48.798;8.816;2022-10-16T01:01:03;1.35;;;0.52;;
71655;SDS011;59497;48.798;8.816;2022-10-16T01:03:34;1.93;;;0.57;;
71655;SDS011;59497;48.798;8.816;2022-10-16T01:08:30;1.83;;;0.70;;
71655;SDS011;59497;48.798;8.816;2022-10-16T01:11:00;0.93;;;0.63;;
71655;SDS011;59497;48.798;8.816;2022-10-16T01:13:32;0.50;;;0.40;;
71655;SDS011;59497;48.798;8.816;2022-10-16T01:16:01;1.23;;;0.60;;
71655;SDS011;59497;48.798;8.816;2022-10-16T01:18:35;2.00;;;0.90;;
71655;SDS011;59497;48.798;8.816;2022-10-16T01:21:03;1.92;;;0.90;;
71655;SDS011;59497;48.798;8.816;2022-10-16T01:28:29;2.53;;;1.10;;
71655;SDS011;59497;48.798;8.816;2022-10-16T01:30:58;7.63;;;1.00;;
71655;SDS011;59497;48.798;8.816;2022-10-16T01:33:25;1.20;;;0.60;;
71655;SDS011;59497;48.798;8.816;2022-10-16T01:35:54;0.83;;;0.70;;
71655;SDS011;59497;48.798;8.816;2022-10-16T01:38:22;1.88;;;0.50;;
71655;SDS011;59497;48.798;8.816;2022-10-16T01:40:52;0.80;;;0.68;;
71655;SDS011;59497;48.798;8.816;2022-10-16T01:43:22;2.55;;;1.00;;
71655;SDS011;59497;48.798;8.816;2022-10-16T01:45:50;2.03;;;0.68;;
71655;SDS011;59497;48.798;8.816;2022-10-16T01:48:19;3.70;;;0.60;;
71655;SDS011;59497;48.798;8.816;2022-10-16T01:50:50;2.13;;;0.60;;
71655;SDS011;59497;48.798;8.816;2022-10-16T01:53:17;2.40;;;0.98;;
71655;SDS011;59497;48.798;8.816;2022-10-16T01:55:43;2.00;;;0.80;;
71655;SDS011;59497;48.798;8.816;2022-10-16T01:58:10;0.85;;;0.60;;
71655;SDS011;59497;48.798;8.816;2022-10-16T02:00:37;1.37;;;0.83;;
71655;SDS011;59497;48.798;8.816;2022-10-16T02:03:03;4.00;;;0.95;;
71655;SDS011;59497;48.798;8.816;2022-10-16T02:05:30;2.13;;;0.80;;
71655;SDS011;59497;48.798;8.816;2022-10-16T02:07:57;2.10;;;0.90;;
71655;SDS011;59497;48.798;8.816;2022-10-16T02:10:22;2.40;;;1.10;;
71655;SDS011;59497;48.798;8.816;2022-10-16T02:12:55;2.10;;;1.05;;
71655;SDS011;59497;48.798;8.816;2022-10-16T02:15:22;1.50;;;0.70;;
71655;SDS011;59497;48.798;8.816;2022-10-16T02:17:47;1.27;;;0.70;;
71655;SDS011;59497;48.798;8.816;2022-10-16T02:20:12;2.05;;;0.88;;
71655;SDS011;59497;48.798;8.816;2022-10-16T02:22:38;3.10;;;0.77;;
71655;SDS011;59497;48.798;8.816;2022-10-16T02:25:06;1.63;;;0.73;;
71655;SDS011;59497;48.798;8.816;2022-10-16T02:27:38;1.15;;;0.77;;
71655;SDS011;59497;48.798;8.816;2022-10-16T02:30:09;3.80;;;1.05;;
71655;SDS011;59497;48.798;8.816;2022-10-16T02:32:37;3.47;;;0.93;;
71655;SDS011;59497;48.798;8.816;2022-10-16T02:35:02;5.73;;;1.03;;
71655;SDS011;59497;48.798;8.816;2022-10-16T02:37:28;1.60;;;0.70;;
71655;SDS011;59497;48.798;8.816;2022-10-16T02:39:55;4.95;;;0.80;;
71655;SDS011;59497;48.798;8.816;2022-10-16T02:42:20;4.53;;;1.00;;
71655;SDS011;59497;48.798;8.816;2022-10-16T02:44:52;1.85;;;0.82;;
71655;SDS011;59497;48.798;8.816;2022-10-16T02:47:17;0.80;;;0.63;;
71655;SDS011;59497;48.798;8.816;2022-10-16T02:49:42;6.47;;;0.90;;
71655;SDS011;59497;48.798;8.816;2022-10-16T02:52:07;3.30;;;0.80;;
71655;SDS011;59497;48.798;8.816;2022-10-16T02:54:32;1.63;;;1.05;;
71655;SDS011;59497;48.798;8.816;2022-10-16T02:56:57;2.92;;;1.00;;
71655;SDS011;59497;48.798;8.816;2022-10-16T02:59:23;2.90;;;1.10;;
71655;SDS011;59497;48.798;8.816;2022-10-16T03:01:48;2.28;;;0.70;;
71655;SDS011;59497;48.798;8.816;2022-10-16T03:04:13;4.00;;;1.80;;
71655;SDS011;59497;48.798;8.816;2022-10-16T03:06:38;4.03;;;1.10;;
71655;SDS011;59497;48.798;8.816;2022-10-16T03:09:03;2.30;;;1.00;;
71655;SDS011;59497;48.798;8.816;2022-10-16T03:11:28;2.57;;;1.00;;
71655;SDS011;59497;48.798;8.816;2022-10-16T03:13:53;4.00;;;0.73;;
71655;SDS011;59497;48.798;8.816;2022-10-16T03:16:19;1.50;;;1.38;;
71655;SDS011;59497;48.798;8.816;2022-10-16T03:18:47;1.50;;;1.15;;
71655;SDS011;59497;48.798;8.816;2022-10-16T03:21:12;4.57;;;1.30;;
71655;SDS011;59497;48.798;8.816;2022-10-16T03:23:37;5.70;;;1.20;;
71655;SDS011;59497;48.798;8.816;2022-10-16T03:26:02;2.58;;;1.00;;
71655;SDS011;59497;48.798;8.816;2022-10-16T03:28:27;4.23;;;1.23;;
71655;SDS011;59497;48.798;8.816;2022-10-16T03:30:53;4.15;;;1.02;;
71655;SDS011;59497;48.798;8.816;2022-10-16T03:33:18;3.00;;;0.80;;
71655;SDS011;59497;48.798;8.816;2022-10-16T03:35:43;1.80;;;1.00;;
71655;SDS011;59497;48.798;8.816;2022-10-16T03:38:15;2.42;;;1.00;;
71655;SDS011;59497;48.798;8.816;2022-10-16T03:40:40;3.58;;;1.48;;
71655;SDS011;59497;48.798;8.816;2022-10-16T03:43:05;1.52;;;1.27;;
71655;SDS011;59497;48.798;8.816;2022-10-16T03:45:31;3.00;;;1.00;;
71655;SDS011;59497;48.798;8.816;2022-10-16T03:47:56;1.97;;;1.07;;
71655;SDS011;59497;48.798;8.816;2022-10-16T03:50:21;1.33;;;1.00;;
71655;SDS011;59497;48.798;8.816;2022-10-16T03:52:46;3.37;;;0.87;;
71655;SDS011;59497;48.798;8.816;2022-10-16T03:55:12;1.43;;;1.20;;
71655;SDS011;59497;48.798;8.816;2022-10-16T03:57:37;2.77;;;1.77;;
71655;SDS011;59497;48.798;8.816;2022-10-16T04:00:02;2.73;;;1.27;;
71655;SDS011;59497;48.798;8.816;2022-10-16T04:02:27;1.60;;;1.10;;
71655;SDS011;59497;48.798;8.816;2022-10-16T04:04:53;3.93;;;1.77;;
71655;SDS011;59497;48.798;8.816;2022-10-16T04:07:18;3.25;;;1.20;;
71655;SDS011;59497;48.798;8.816;2022-10-16T04:09:43;2.20;;;1.25;;
71655;SDS011;59497;48.798;8.816;2022-10-16T04:12:08;5.10;;;1.40;;
71655;SDS011;59497;48.798;8.816;2022-10-16T04:14:33;2.75;;;0.65;;
71655;SDS011;59497;48.798;8.816;2022-10-16T04:16:59;2.30;;;1.17;;
71655;SDS011;59497;48.798;8.816;2022-10-16T04:19:24;3.10;;;1.23;;
71655;SDS011;59497;48.798;8.816;2022-10-16T04:21:49;2.42;;;1.10;;
71655;SDS011;59497;48.798;8.816;2022-10-16T04:24:14;4.63;;;1.10;;
71655;SDS011;59497;48.798;8.816;2022-10-16T04:26:39;3.30;;;0.93;;
71655;SDS011;59497;48.798;8.816;2022-10-16T04:29:04;1.50;;;0.83;;
71655;SDS011;59497;48.798;8.816;2022-10-16T04:31:31;1.75;;;1.10;;
71655;SDS011;59497;48.798;8.816;2022-10-16T04:33:56;1.57;;;0.90;;
71655;SDS011;59497;48.798;8.816;2022-10-16T04:36:21;1.77;;;0.80;;
71655;SDS011;59497;48.798;8.816;2022-10-16T04:38:46;2.87;;;0.87;;
71655;SDS011;59497;48.798;8.816;2022-10-16T04:41:11;2.07;;;1.30;;
71655;SDS011;59497;48.798;8.816;2022-10-16T04:43:36;1.80;;;1.25;;
71655;SDS011;59497;48.798;8.816;2022-10-16T04:46:01;2.90;;;1.30;;
71655;SDS011;59497;48.798;8.816;2022-10-16T04:48:29;3.25;;;1.15;;
71655;SDS011;59497;48.798;8.816;2022-10-16T04:50:54;2.03;;;1.47;;
71655;SDS011;59497;48.798;8.816;2022-10-16T04:53:19;1.77;;;0.83;;
71655;SDS011;59497;48.798;8.816;2022-10-16T04:55:45;2.00;;;0.93;;
71655;SDS011;59497;48.798;8.816;2022-10-16T04:58:10;1.33;;;1.20;;
71655;SDS011;59497;48.798;8.816;2022-10-16T05:00:35;3.10;;;1.57;;
71655;SDS011;59497;48.798;8.816;2022-10-16T05:03:01;2.00;;;0.90;;
71655;SDS011;59497;48.798;8.816;2022-10-16T05:05:27;1.35;;;0.90;;
71655;SDS011;59497;48.798;8.816;2022-10-16T05:07:52;3.47;;;1.23;;
71655;SDS011;59497;48.798;8.816;2022-10-16T05:10:17;6.77;;;1.63;;
71655;SDS011;59497;48.798;8.816;2022-10-16T05:12:42;4.13;;;1.40;;
71655;SDS011;59497;48.798;8.816;2022-10-16T05:15:08;3.53;;;1.07;;
71655;SDS011;59497;48.798;8.816;2022-10-16T05:17:33;3.75;;;1.40;;
71655;SDS011;59497;48.798;8.816;2022-10-16T05:19:58;2.30;;;1.45;;
71655;SDS011;59497;48.798;8.816;2022-10-16T05:22:24;1.20;;;1.10;;
71655;SDS011;59497;48.798;8.816;2022-10-16T05:24:49;2.23;;;1.03;;
71655;SDS011;59497;48.798;8.816;2022-10-16T05:27:14;2.47;;;1.00;;
71655;SDS011;59497;48.798;8.816;2022-10-16T05:29:47;1.92;;;1.15;;
71655;SDS011;59497;48.798;8.816;2022-10-16T05:32:13;2.67;;;1.00;;
71655;SDS011;59497;48.798;8.816;2022-10-16T05:34:38;2.47;;;1.20;;
71655;SDS011;59497;48.798;8.816;2022-10-16T05:37:03;2.97;;;0.73;;
71655;SDS011;59497;48.798;8.816;2022-10-16T05:39:28;3.47;;;1.20;;
71655;SDS011;59497;48.798;8.816;2022-10-16T05:41:54;3.00;;;1.13;;
71655;SDS011;59497;48.798;8.816;2022-10-16T05:44:19;2.27;;;0.87;;
71655;SDS011;59497;48.798;8.816;2022-10-16T05:46:45;2.33;;;1.20;;
71655;SDS011;59497;48.798;8.816;2022-10-16T05:49:10;2.42;;;0.93;;
71655;SDS011;59497;48.798;8.816;2022-10-16T05:51:35;1.05;;;0.98;;
71655;SDS011;59497;48.798;8.816;2022-10-16T05:54:01;4.83;;;4.33;;
71655;SDS011;59497;48.798;8.816;2022-10-16T05:56:26;3.08;;;2.28;;
71655;SDS011;59497;48.798;8.816;2022-10-16T05:58:51;3.27;;;1.60;;
71655;SDS011;59497;48.798;8.816;2022-10-16T06:01:17;2.77;;;1.80;;
71655;SDS011;59497;48.798;8.816;2022-10-16T06:03:43;2.00;;;1.30;;
71655;SDS011;59497;48.798;8.816;2022-10-16T06:06:12;2.23;;;1.00;;
71655;SDS011;59497;48.798;8.816;2022-10-16T06:08:37;2.28;;;1.52;;
71655;SDS011;59497;48.798;8.816;2022-10-16T06:11:03;1.50;;;1.20;;
71655;SDS011;59497;48.798;8.816;2022-10-16T06:13:29;1.73;;;0.98;;
71655;SDS011;59497;48.798;8.816;2022-10-16T06:15:56;1.45;;;1.00;;
71655;SDS011;59497;48.798;8.816;2022-10-16T06:18:21;1.83;;;1.08;;
71655;SDS011;59497;48.798;8.816;2022-10-16T06:20:46;1.53;;;1.10;;
71655;SDS011;59497;48.798;8.816;2022-10-16T06:23:12;2.67;;;1.10;;
71655;SDS011;59497;48.798;8.816;2022-10-16T06:25:37;1.35;;;1.25;;
71655;SDS011;59497;48.798;8.816;2022-10-16T06:28:02;2.27;;;1.60;;
71655;SDS011;59497;48.798;8.816;2022-10-16T06:30:27;3.15;;;1.10;;
71655;SDS011;59497;48.798;8.816;2022-10-16T06:32:52;1.45;;;1.30;;
71655;SDS011;59497;48.798;8.816;2022-10-16T06:35:18;3.53;;;1.30;;
71655;SDS011;59497;48.798;8.816;2022-10-16T06:37:43;1.43;;;1.10;;
71655;SDS011;59497;48.798;8.816;2022-10-16T06:40:08;1.50;;;1.03;;
71655;SDS011;59497;48.798;8.816;2022-10-16T06:42:33;2.17;;;1.07;;
71655;SDS011;59497;48.798;8.816;2022-10-16T06:44:58;2.53;;;1.23;;
71655;SDS011;59497;48.798;8.816;2022-10-16T06:47:23;2.03;;;1.20;;
71655;SDS011;59497;48.798;8.816;2022-10-16T06:49:49;3.57;;;1.57;;
71655;SDS011;59497;48.798;8.816;2022-10-16T06:52:14;1.23;;;1.03;;
71655;SDS011;59497;48.798;8.816;2022-10-16T06:54:39;3.97;;;1.40;;
71655;SDS011;59497;48.798;8.816;2022-10-16T06:57:04;4.28;;;1.30;;
71655;SDS011;59497;48.798;8.816;2022-10-16T06:59:29;1.93;;;1.30;;
71655;SDS011;59497;48.798;8.816;2022-10-16T07:01:54;1.90;;;1.50;;
71655;SDS011;59497;48.798;8.816;2022-10-16T07:04:19;2.93;;;1.10;;
71655;SDS011;59497;48.798;8.816;2022-10-16T07:06:45;2.20;;;1.30;;
71655;SDS011;59497;48.798;8.816;2022-10-16T07:09:10;1.90;;;1.10;;
71655;SDS011;59497;48.798;8.816;2022-10-16T07:11:39;1.53;;;1.10;;
71655;SDS011;59497;48.798;8.816;2022-10-16T07:14:04;2.95;;;1.27;;
71655;SDS011;59497;48.798;8.816;2022-10-16T07:16:30;3.13;;;0.90;;
71655;SDS011;59497;48.798;8.816;2022-10-16T07:18:56;3.28;;;0.90;;
71655;SDS011;59497;48.798;8.816;2022-10-16T07:21:25;4.93;;;1.30;;
71655;SDS011;59497;48.798;8.816;2022-10-16T07:23:51;2.97;;;1.33;;
71655;SDS011;59497;48.798;8.816;2022-10-16T07:26:16;2.50;;;1.93;;
71655;SDS011;59497;48.798;8.816;2022-10-16T07:28:42;4.57;;;1.47;;
71655;SDS011;59497;48.798;8.816;2022-10-16T07:31:09;1.33;;;1.00;;
71655;SDS011;59497;48.798;8.816;2022-10-16T07:33:35;5.90;;;3.65;;
71655;SDS011;59497;48.798;8.816;2022-10-16T07:36:01;4.60;;;3.40;;
71655;SDS011;59497;48.798;8.816;2022-10-16T07:38:26;3.77;;;1.80;;
71655;SDS011;59497;48.798;8.816;2022-10-16T07:40:58;1.93;;;1.37;;
71655;SDS011;59497;48.798;8.816;2022-10-16T07:43:24;4.93;;;1.95;;
71655;SDS011;59497;48.798;8.816;2022-10-16T07:45:49;2.93;;;1.20;;
71655;SDS011;59497;48.798;8.816;2022-10-16T07:48:15;1.90;;;1.00;;
71655;SDS011;59497;48.798;8.816;2022-10-16T07:50:41;3.10;;;1.20;;
71655;SDS011;59497;48.798;8.816;2022-10-16T07:53:06;2.53;;;1.07;;
71655;SDS011;59497;48.798;8.816;2022-10-16T07:55:31;1.97;;;1.20;;
71655;SDS011;59497;48.798;8.816;2022-10-16T07:57:56;1.15;;;0.93;;
71655;SDS011;59497;48.798;8.816;2022-10-16T08:00:21;1.48;;;1.30;;
71655;SDS011;59497;48.798;8.816;2022-10-16T08:02:46;2.50;;;1.13;;
71655;SDS011;59497;48.798;8.816;2022-10-16T08:05:11;1.40;;;0.90;;
71655;SDS011;59497;48.798;8.816;2022-10-16T08:07:37;3.00;;;1.50;;
71655;SDS011;59497;48.798;8.816;2022-10-16T08:10:02;2.45;;;1.40;;
71655;SDS011;59497;48.798;8.816;2022-10-16T08:12:28;1.87;;;1.10;;
71655;SDS011;59497;48.798;8.816;2022-10-16T08:14:53;0.97;;;0.97;;
71655;SDS011;59497;48.798;8.816;2022-10-16T08:17:19;1.60;;;0.88;;
71655;SDS011;59497;48.798;8.816;2022-10-16T08:19:47;1.67;;;1.20;;
71655;SDS011;59497;48.798;8.816;2022-10-16T08:22:12;1.15;;;0.80;;
71655;SDS011;59497;48.798;8.816;2022-10-16T08:24:37;1.33;;;1.17;;
71655;SDS011;59497;48.798;8.816;2022-10-16T08:27:03;1.73;;;0.73;;
71655;SDS011;59497;48.798;8.816;2022-10-16T08:29:28;1.48;;;1.30;;
71655;SDS011;59497;48.798;8.816;2022-10-16T08:31:53;1.30;;;1.10;;
71655;SDS011;59497;48.798;8.816;2022-10-16T08:34:18;1.43;;;1.30;;
71655;SDS011;59497;48.798;8.816;2022-10-16T08:36:44;4.70;;;1.05;;
71655;SDS011;59497;48.798;8.816;2022-10-16T08:39:09;1.83;;;1.10;;
71655;SDS011;59497;48.798;8.816;2022-10-16T08:44:30;1.30;;;1.00;;
71655;SDS011;59497;48.798;8.816;2022-10-16T08:47:17;1.70;;;1.10;;
71655;SDS011;59497;48.798;8.816;2022-10-16T08:49:43;1.13;;;0.88;;
71655;SDS011;59497;48.798;8.816;2022-10-16T08:52:13;4.80;;;1.00;;
71655;SDS011;59497;48.798;8.816;2022-10-16T08:54:41;1.93;;;1.50;;
71655;SDS011;59497;48.798;8.816;2022-10-16T08:57:20;3.38;;;1.00;;
71655;SDS011;59497;48.798;8.816;2022-10-16T08:59:45;1.27;;;1.15;;
71655;SDS011;59497;48.798;8.816;2022-10-16T09:04:57;2.90;;;1.75;;
71655;SDS011;59497;48.798;8.816;2022-10-16T09:10:09;2.38;;;0.98;;
71655;SDS011;59497;48.798;8.816;2022-10-16T09:12:37;1.40;;;1.30;;
71655;SDS011;59497;48.798;8.816;2022-10-16T09:17:30;1.27;;;1.03;;
71655;SDS011;59497;48.798;8.816;2022-10-16T09:20:18;3.58;;;1.20;;
71655;SDS011;59497;48.798;8.816;2022-10-16T09:22:44;2.22;;;1.42;;
71655;SDS011;59497;48.798;8.816;2022-10-16T09:25:11;1.27;;;1.10;;
71655;SDS011;59497;48.798;8.816;2022-10-16T09:27:36;1.73;;;0.90;;
71655;SDS011;59497;48.798;8.816;2022-10-16T09:30:09;1.57;;;1.17;;
71655;SDS011;59497;48.798;8.816;2022-10-16T09:32:35;3.67;;;1.13;;
71655;SDS011;59497;48.798;8.816;2022-10-16T09:35:00;1.20;;;1.10;;
71655;SDS011;59497;48.798;8.816;2022-10-16T09:37:25;3.13;;;1.23;;
71655;SDS011;59497;48.798;8.816;2022-10-16T09:39:53;4.72;;;1.17;;
71655;SDS011;59497;48.798;8.816;2022-10-16T09:42:20;1.50;;;1.23;;
71655;SDS011;59497;48.798;8.816;2022-10-16T09:44:49;2.90;;;1.00;;
71655;SDS011;59497;48.798;8.816;2022-10-16T09:47:16;0.93;;;0.93;;
71655;SDS011;59497;48.798;8.816;2022-10-16T09:49:58;1.25;;;1.10;;
71655;SDS011;59497;48.798;8.816;2022-10-16T09:52:26;1.50;;;1.15;;
71655;SDS011;59497;48.798;8.816;2022-10-16T09:54:52;2.97;;;1.20;;
71655;SDS011;59497;48.798;8.816;2022-10-16T09:57:18;2.90;;;1.10;;
71655;SDS011;59497;48.798;8.816;2022-10-16T09:59:50;2.03;;;1.20;;
71655;SDS011;59497;48.798;8.816;2022-10-16T10:02:16;1.77;;;0.90;;
71655;SDS011;59497;48.798;8.816;2022-10-16T10:04:45;2.13;;;1.70;;
71655;SDS011;59497;48.798;8.816;2022-10-16T10:07:20;2.08;;;1.30;;
71655;SDS011;59497;48.798;8.816;2022-10-16T10:09:46;2.67;;;1.27;;
71655;SDS011;59497;48.798;8.816;2022-10-16T10:12:19;1.77;;;1.40;;
71655;SDS011;59497;48.798;8.816;2022-10-16T10:14:46;1.42;;;1.33;;
71655;SDS011;59497;48.798;8.816;2022-10-16T10:17:16;2.17;;;1.43;;
71655;SDS011;59497;48.798;8.816;2022-10-16T10:19:47;2.47;;;1.50;;
71655;SDS011;59497;48.798;8.816;2022-10-16T10:25:00;2.10;;;1.00;;
71655;SDS011;59497;48.798;8.816;2022-10-16T10:27:29;2.45;;;1.60;;
71655;SDS011;59497;48.798;8.816;2022-10-16T10:35:22;3.92;;;1.40;;
71655;SDS011;59497;48.798;8.816;2022-10-16T10:37:55;2.00;;;1.55;;
71655;SDS011;59497;48.798;8.816;2022-10-16T10:40:30;2.90;;;1.80;;
71655;SDS011;59497;48.798;8.816;2022-10-16T10:43:01;1.60;;;1.50;;
71655;SDS011;59497;48.798;8.816;2022-10-16T10:45:41;2.03;;;1.30;;
71655;SDS011;59497;48.798;8.816;2022-10-16T10:50:57;1.30;;;1.17;;
71655;SDS011;59497;48.798;8.816;2022-10-16T11:06:42;1.58;;;1.48;;
71655;SDS011;59497;48.798;8.816;2022-10-16T11:12:06;2.42;;;1.55;;
71655;SDS011;59497;48.798;8.816;2022-10-16T11:14:29;3.15;;;1.90;;
71655;SDS011;59497;48.798;8.816;2022-10-16T11:17:13;1.77;;;1.27;;
71655;SDS011;59497;48.798;8.816;2022-10-16T11:19:48;1.65;;;1.55;;
71655;SDS011;59497;48.798;8.816;2022-10-16T11:24:44;1.40;;;1.30;;
71655;SDS011;59497;48.798;8.816;2022-10-16T11:27:12;1.97;;;1.57;;
71655;SDS011;59497;48.798;8.816;2022-10-16T11:29:45;1.83;;;1.73;;
71655;SDS011;59497;48.798;8.816;2022-10-16T11:32:34;2.58;;;1.50;;
71655;SDS011;59497;48.798;8.816;2022-10-16T11:35:00;2.10;;;2.00;;
71655;SDS011;59497;48.798;8.816;2022-10-16T11:37:28;1.90;;;1.80;;
71655;SDS011;59497;48.798;8.816;2022-10-16T11:39:58;2.00;;;1.53;;
71655;SDS011;59497;48.798;8.816;2022-10-16T11:42:36;2.63;;;1.60;;
71655;SDS011;59497;48.798;8.816;2022-10-16T11:47:35;2.00;;;1.40;;
71655;SDS011;59497;48.798;8.816;2022-10-16T11:50:03;3.03;;;1.70;;
71655;SDS011;59497;48.798;8.816;2022-10-16T11:57:46;2.22;;;1.50;;
71655;SDS011;59497;48.798;8.816;2022-10-16T12:02:47;3.10;;;1.80;;
71655;SDS011;59497;48.798;8.816;2022-10-16T12:08:06;2.83;;;1.40;;
71655;SDS011;59497;48.798;8.816;2022-10-16T12:10:34;4.53;;;1.52;;
71655;SDS011;59497;48.798;8.816;2022-10-16T12:13:03;2.78;;;2.38;;
71655;SDS011;59497;48.798;8.816;2022-10-16T12:15:29;2.72;;;1.40;;
71655;SDS011;59497;48.798;8.816;2022-10-16T12:17:55;1.60;;;1.50;;
71655;SDS011;59497;48.798;8.816;2022-10-16T12:20:22;1.97;;;1.30;;
71655;SDS011;59497;48.798;8.816;2022-10-16T12:25:24;13.53;;;1.80;;
71655;SDS011;59497;48.798;8.816;2022-10-16T12:27:56;2.30;;;1.25;;
71655;SDS011;59497;48.798;8.816;2022-10-16T12:30:22;2.70;;;1.40;;
71655;SDS011;59497;48.798;8.816;2022-10-16T12:33:05;1.90;;;1.50;;
71655;SDS011;59497;48.798;8.816;2022-10-16T12:35:32;3.05;;;1.70;;
71655;SDS011;59497;48.798;8.816;2022-10-16T12:38:08;1.70;;;1.60;;
71655;SDS011;59497;48.798;8.816;2022-10-16T12:40:37;1.67;;;1.20;;
71655;SDS011;59497;48.798;8.816;2022-10-16T12:43:13;2.07;;;1.77;;
71655;SDS011;59497;48.798;8.816;2022-10-16T12:45:48;3.17;;;1.60;;
71655;SDS011;59497;48.798;8.816;2022-10-16T12:48:23;3.17;;;1.98;;
71655;SDS011;59497;48.798;8.816;2022-10-16T12:50:48;3.07;;;1.60;;
71655;SDS011;59497;48.798;8.816;2022-10-16T12:53:17;2.83;;;2.13;;
71655;SDS011;59497;48.798;8.816;2022-10-16T12:55:46;2.00;;;1.90;;
71655;SDS011;59497;48.798;8.816;2022-10-16T13:06:04;3.38;;;1.95;;
71655;SDS011;59497;48.798;8.816;2022-10-16T13:11:10;1.98;;;1.88;;
71655;SDS011;59497;48.798;8.816;2022-10-16T13:16:26;1.27;;;1.13;;
71655;SDS011;59497;48.798;8.816;2022-10-16T13:23:51;2.00;;;1.90;;
71655;SDS011;59497;48.798;8.816;2022-10-16T13:26:33;5.10;;;2.40;;
71655;SDS011;59497;48.798;8.816;2022-10-16T13:29:01;2.22;;;1.70;;
71655;SDS011;59497;48.798;8.816;2022-10-16T13:31:26;3.43;;;1.63;;
71655;SDS011;59497;48.798;8.816;2022-10-16T13:33:54;2.08;;;1.63;;
71655;SDS011;59497;48.798;8.816;2022-10-16T13:36:21;2.35;;;1.70;;
71655;SDS011;59497;48.798;8.816;2022-10-16T13:38:46;1.80;;;1.53;;
71655;SDS011;59497;48.798;8.816;2022-10-16T13:41:16;1.70;;;1.60;;
71655;SDS011;59497;48.798;8.816;2022-10-16T13:43:49;3.45;;;1.88;;
71655;SDS011;59497;48.798;8.816;2022-10-16T13:46:21;1.70;;;1.20;;
71655;SDS011;59497;48.798;8.816;2022-10-16T13:49:03;2.10;;;1.90;;
71655;SDS011;59497;48.798;8.816;2022-10-16T13:51:29;1.50;;;1.40;;
71655;SDS011;59497;48.798;8.816;2022-10-16T13:53:55;3.00;;;1.80;;
71655;SDS011;59497;48.798;8.816;2022-10-16T13:56:21;2.38;;;1.35;;
71655;SDS011;59497;48.798;8.816;2022-10-16T13:58:57;2.28;;;1.70;;
71655;SDS011;59497;48.798;8.816;2022-10-16T14:01:23;1.30;;;1.20;;
71655;SDS011;59497;48.798;8.816;2022-10-16T14:03:49;2.78;;;1.75;;
71655;SDS011;59497;48.798;8.816;2022-10-16T14:06:16;2.40;;;1.80;;
71655;SDS011;59497;48.798;8.816;2022-10-16T14:08:43;1.42;;;1.13;;
71655;SDS011;59497;48.798;8.816;2022-10-16T14:11:09;4.18;;;2.00;;
71655;SDS011;59497;48.798;8.816;2022-10-16T14:13:39;3.03;;;1.77;;
71655;SDS011;59497;48.798;8.816;2022-10-16T14:16:16;2.97;;;1.63;;
71655;SDS011;59497;48.798;8.816;2022-10-16T14:18:44;1.92;;;1.77;;
71655;SDS011;59497;48.798;8.816;2022-10-16T14:21:12;2.17;;;1.92;;
71655;SDS011;59497;48.798;8.816;2022-10-16T14:23:38;2.60;;;1.70;;
71655;SDS011;59497;48.798;8.816;2022-10-16T14:28:38;4.35;;;1.80;;
71655;SDS011;59497;48.798;8.816;2022-10-16T14:31:20;5.20;;;1.92;;
71655;SDS011;59497;48.798;8.816;2022-10-16T14:33:48;3.38;;;1.85;;
71655;SDS011;59497;48.798;8.816;2022-10-16T14:36:13;4.80;;;2.40;;
71655;SDS011;59497;48.798;8.816;2022-10-16T14:38:40;1.73;;;1.63;;
71655;SDS011;59497;48.798;8.816;2022-10-16T14:41:06;2.00;;;1.90;;
71655;SDS011;59497;48.798;8.816;2022-10-16T14:43:41;2.67;;;1.57;;
71655;SDS011;59497;48.798;8.816;2022-10-16T14:46:09;3.28;;;1.52;;
71655;SDS011;59497;48.798;8.816;2022-10-16T14:48:36;3.15;;;1.60;;
71655;SDS011;59497;48.798;8.816;2022-10-16T14:51:05;3.47;;;1.90;;
71655;SDS011;59497;48.798;8.816;2022-10-16T14:53:30;1.98;;;1.30;;
71655;SDS011;59497;48.798;8.816;2022-10-16T14:55:55;5.00;;;1.70;;
71655;SDS011;59497;48.798;8.816;2022-10-16T14:58:21;2.27;;;1.53;;
71655;SDS011;59497;48.798;8.816;2022-10-16T15:00:47;2.78;;;1.70;;
71655;SDS011;59497;48.798;8.816;2022-10-16T15:03:13;1.93;;;1.60;;
71655;SDS011;59497;48.798;8.816;2022-10-16T15:05:38;2.17;;;1.57;;
71655;SDS011;59497;48.798;8.816;2022-10-16T15:08:03;2.87;;;1.70;;
71655;SDS011;59497;48.798;8.816;2022-10-16T15:10:29;2.33;;;1.88;;
71655;SDS011;59497;48.798;8.816;2022-10-16T15:12:55;2.33;;;2.10;;
71655;SDS011;59497;48.798;8.816;2022-10-16T15:17:52;2.15;;;1.58;;
71655;SDS011;59497;48.798;8.816;2022-10-16T15:20:18;1.97;;;1.67;;
71655;SDS011;59497;48.798;8.816;2022-10-16T15:22:44;3.38;;;1.52;;
71655;SDS011;59497;48.798;8.816;2022-10-16T15:27:53;3.40;;;1.80;;
71655;SDS011;59497;48.798;8.816;2022-10-16T15:30:18;3.58;;;1.80;;
71655;SDS011;59497;48.798;8.816;2022-10-16T15:32:43;2.15;;;1.27;;
71655;SDS011;59497;48.798;8.816;2022-10-16T15:35:09;3.00;;;1.85;;
71655;SDS011;59497;48.798;8.816;2022-10-16T15:37:34;2.13;;;2.00;;
71655;SDS011;59497;48.798;8.816;2022-10-16T15:39:59;4.73;;;2.00;;
71655;SDS011;59497;48.798;8.816;2022-10-16T15:42:24;7.20;;;2.47;;
71655;SDS011;59497;48.798;8.816;2022-10-16T15:44:49;3.28;;;2.40;;
71655;SDS011;59497;48.798;8.816;2022-10-16T15:47:15;3.50;;;1.80;;
71655;SDS011;59497;48.798;8.816;2022-10-16T15:49:40;3.40;;;2.17;;
71655;SDS011;59497;48.798;8.816;2022-10-16T15:52:05;4.03;;;2.50;;
71655;SDS011;59497;48.798;8.816;2022-10-16T15:54:30;3.63;;;2.60;;
71655;SDS011;59497;48.798;8.816;2022-10-16T15:56:55;3.73;;;2.20;;
71655;SDS011;59497;48.798;8.816;2022-10-16T15:59:20;5.10;;;2.40;;
71655;SDS011;59497;48.798;8.816;2022-10-16T16:01:45;2.80;;;1.90;;
71655;SDS011;59497;48.798;8.816;2022-10-16T16:04:11;3.50;;;1.80;;
71655;SDS011;59497;48.798;8.816;2022-10-16T16:06:37;2.20;;;2.00;;
71655;SDS011;59497;48.798;8.816;2022-10-16T16:09:04;4.35;;;2.75;;
71655;SDS011;59497;48.798;8.816;2022-10-16T16:11:29;5.32;;;3.05;;
71655;SDS011;59497;48.798;8.816;2022-10-16T16:13:56;4.68;;;2.33;;
71655;SDS011;59497;48.798;8.816;2022-10-16T16:16:22;4.43;;;2.07;;
71655;SDS011;59497;48.798;8.816;2022-10-16T16:18:47;3.33;;;1.90;;
71655;SDS011;59497;48.798;8.816;2022-10-16T16:21:14;3.05;;;2.03;;